Aviation Digital Data Service (ADDS)

Output produced by METARs form (1341 UTC 29 March 2015)
found at http://www.aviationweather.gov/adds/metars/
 
KLGA 291120Z 2912/3012 33013KT P6SM SCT050 BKN250 
     FM291400 34012KT P6SM SCT250 
     FM292000 26010KT P6SM SCT250 
     FM292300 23009KT P6SM SCT250 
     FM300200 20008KT P6SM SCT250 
     FM300800 22010KT P6SM OVC100 
     FM301100 22012KT P6SM OVC050